Lawson Creek (157) Station Data

Red Flag Warning: No
Fire Weather Zone: 250
SDGE Region: Eastern
Lat/Lon: 32.743/-116.732

Observations

Time Wind Speed/Gust Temp(F) RH Fuel Moist Fuel Temp(F) Dewpt(F) Tmax(F) Tmin(F) Accum Precip 10-min Precip SL Press(mb)
5/24 8:30am 220 1 G 2 74° 35% - - 45° 75.4° 59.2° - - -
5/24 8:20am 182 1 G 2 72° 37% - - 45° 73.6° 59.2° - - -
5/24 8:10am 122 1 G 4 70° 42% - - 46° 71.6° 59.2° - - -
5/24 8:00am 155 1 G 3 67° 49% - - 48° 68.7° 59.2° - - -
5/24 7:50am 56 2 G 3 66° 49% - - 46° 66.9° 59.2° - - -
5/24 7:40am 66 3 G 4 65° 51% - - 47° 65.9° 59.2° - - -
5/24 7:30am 140 1 G 2 64° 50% - - 46° 65.5° 59.2° - - -
5/24 7:20am 74 2 G 4 64° 45% - - 43° 65.5° 59.2° - - -
5/24 7:10am 172 1 G 3 65° 40% - - 40° 65.5° 59.2° - - -
5/24 7:00am 151 2 G 3 63° 43% - - 40° 64.9° 59.2° - - -
5/24 6:50am 48 3 G 7 63° 41% - - 39° 64.9° 59.2° - - -
5/24 6:40am 301 2 G 6 63° 42% - - 40° 64.9° 59.2° - - -
5/24 6:30am 90 2 G 5 63° 43% - - 40° 64.9° 59.2° - - -
5/24 6:20am 81 4 G 5 63° 41% - - 38° 64.9° 59.2° - - -
5/24 6:10am 87 2 G 3 61° 42% - - 38° 64.9° 59.2° - - -
5/24 5:50am 88 4 G 5 62° 36% - - 34° 64.9° 59.2° - - -
5/24 5:40am 89 4 G 5 62° 34% - - 34° 64.9° 59.2° - - -
5/24 5:30am 93 4 G 6 63° 33% - - 34° 64.9° 59.2° - - -
5/24 5:20am 96 4 G 6 64° 33% - - 34° 64.9° 59.2° - - -
5/24 5:10am 100 4 G 6 63° 34% - - 35° 64.3° 59.2° - - -
5/24 5:00am 86 4 G 6 62° 36% - - 35° 64° 59.2° - - -
5/24 4:50am 95 4 G 5 62° 38% - - 36° 64° 59.2° - - -
5/24 4:40am 82 4 G 5 61° 41% - - 37° 64° 59.2° - - -
5/24 4:30am 83 4 G 6 62° 40% - - 37° 64° 59.2° - - -
5/24 4:20am 75 4 G 5 61° 42% - - 38° 64° 59.2° - - -
5/24 4:10am 81 4 G 6 60° 44% - - 39° 64° 59.2° - - -
5/24 4:00am 73 4 G 5 60° 46% - - 40° 64° 59.2° - - -
5/24 3:50am 74 3 G 4 61° 44% - - 40° 64° 59.8° - - -
5/24 3:40am 79 3 G 4 62° 44% - - 40° 64° 59.8° - - -
5/24 3:30am 72 4 G 5 61° 47% - - 41° 64° 59.8° - - -
5/24 3:20am 72 4 G 5 61° 48% - - 41° 64° 59.8° - - -
5/24 3:10am 87 5 G 6 62° 46% - - 41° 64° 59.8° - - -
5/24 3:00am 78 4 G 4 62° 49% - - 42° 64° 59.8° - - -
5/24 2:50am 92 3 G 5 61° 50% - - 43° 64° 59.8° - - -
5/24 2:40am 80 4 G 5 62° 50% - - 43° 64° 59.8° - - -
5/24 2:30am 78 4 G 5 61° 52% - - 43° 64° 59.8° - - -
5/24 2:20am 81 4 G 5 62° 50% - - 43° 64° 59.8° - - -
5/24 2:10am 85 5 G 6 62° 50% - - 43° 64° 59.8° - - -
5/24 2:00am 79 5 G 5 63° 48% - - 43° 64° 59.8° - - -
5/24 1:50am 83 4 G 6 63° 46% - - 42° 64° 59.8° - - -
5/24 1:40am 86 4 G 5 62° 48% - - 42° 64° 59.8° - - -
5/24 1:30am 81 3 G 5 60° 51% - - 42° 64° 59.8° - - -
5/24 1:20am 76 4 G 5 63° 46% - - 42° 64° 59.8° - - -
5/24 1:10am 101 2 G 4 63° 45% - - 41° 64° 59.8° - - -
5/24 1:00am 105 3 G 5 63° 46% - - 42° 63.9° 59.8° - - -
5/24 12:50am 87 4 G 6 62° 52% - - 44° 63° 59.8° - - -
5/24 12:40am 83 4 G 6 62° 59% - - 47° 62.2° 59.8° - - -
5/24 12:30am 76 4 G 5 61° 63% - - 48° 61.9° 59.8° - - -
5/24 12:20am 84 3 G 4 61° 64% - - 49° 61.9° 59.9° - - -
5/24 12:10am 88 4 G 5 61° 67% - - 50° 61.8° 59.9° - - -
5/24 12:00am 73 3 G 5 61° 67% - - 50° 90.4° 59.1° - - -
5/23 11:50pm 85 3 G 4 61° 67% - - 50° 90.4° 59.1° - - -
5/23 11:40pm 83 3 G 4 62° 67% - - 51° 90.4° 59.1° - - -
5/23 11:30pm 74 4 G 5 61° 69% - - 51° 90.4° 59.1° - - -
5/23 11:20pm 81 4 G 5 61° 68% - - 51° 90.4° 59.1° - - -
5/23 11:10pm 77 3 G 4 61° 68% - - 51° 90.4° 59.1° - - -
5/23 11:00pm 95 3 G 4 61° 67% - - 50° 90.4° 59.1° - - -
5/23 10:50pm 70 4 G 5 61° 68% - - 50° 90.4° 59.1° - - -
5/23 10:40pm 81 3 G 4 61° 67% - - 50° 90.4° 59.1° - - -
5/23 10:30pm 84 3 G 4 61° 67% - - 50° 90.4° 59.1° - - -
5/23 10:20pm 82 3 G 4 62° 66% - - 50° 90.4° 59.1° - - -
5/23 10:10pm 78 3 G 4 62° 66% - - 51° 90.4° 59.1° - - -
5/23 10:00pm 85 3 G 3 61° 68% - - 51° 90.4° 59.1° - - -
5/23 9:50pm 82 2 G 4 63° 65% - - 51° 90.4° 59.1° - - -
5/23 9:40pm 83 3 G 4 64° 63% - - 51° 90.4° 59.1° - - -
5/23 9:30pm 74 2 G 4 63° 65% - - 51° 90.4° 59.1° - - -
5/23 9:20pm 72 3 G 4 63° 65% - - 51° 90.4° 59.1° - - -
5/23 9:10pm 79 3 G 4 64° 64% - - 51° 90.4° 59.1° - - -
5/23 9:00pm 75 3 G 4 64° 63% - - 51° 90.4° 59.1° - - -
5/23 8:50pm 73 3 G 4 64° 63% - - 52° 90.4° 59.1° - - -
5/23 8:40pm 86 3 G 4 66° 61% - - 52° 90.4° 59.1° - - -
5/23 8:30pm 106 2 G 3 66° 61% - - 52° 90.4° 59.1° - - -
5/23 8:20pm 132 2 G 4 67° 61% - - 53° 90.4° 59.1° - - -
5/23 8:10pm 18 1 G 3 68° 61% - - 54° 90.4° 59.1° - - -
5/23 8:00pm 96 2 G 4 69° 58% - - 54° 90.4° 59.1° - - -
5/23 7:50pm 93 2 G 4 71° 56% - - 54° 90.4° 59.1° - - -
5/23 7:40pm 91 2 G 3 73° 51% - - 54° 90.4° 59.1° - - -
5/23 7:30pm 13 0 G 1 76° 46% - - 53° 90.4° 59.1° - - -
5/23 7:20pm 335 1 G 2 76° 44% - - 53° 90.4° 59.1° - - -
5/23 7:10pm 6 1 G 2 76° 44% - - 53° 90.4° 59.1° - - -
5/23 7:00pm 355 1 G 3 77° 43% - - 53° 90.4° 59.1° - - -
5/23 6:50pm 330 1 G 3 78° 42% - - 53° 90.4° 59.1° - - -
5/23 6:40pm 324 2 G 5 79° 41% - - 53° 90.4° 59.1° - - -
5/23 6:30pm 301 3 G 6 79° 41% - - 53° 90.4° 59.1° - - -
5/23 6:20pm 290 4 G 7 80° 41% - - 54° 90.4° 59.1° - - -
5/23 6:10pm 283 4 G 7 80° 40% - - 54° 90.4° 59.1° - - -
5/23 6:00pm 282 5 G 9 80° 39% - - 53° 90.4° 59.1° - - -
5/23 5:50pm 286 4 G 8 82° 38% - - 54° 90.4° 59.1° - - -
5/23 5:40pm 299 4 G 8 82° 38% - - 54° 90.4° 59.1° - - -
5/23 5:30pm 287 4 G 7 82° 38% - - 54° 90.4° 59.1° - - -
5/23 5:20pm 308 4 G 8 82° 38% - - 54° 90.4° 59.1° - - -
5/23 5:10pm 296 3 G 6 81° 38% - - 53° 90.4° 59.1° - - -
5/23 5:00pm 287 4 G 8 81° 38% - - 53° 90.4° 59.1° - - -
5/23 4:50pm 310 3 G 7 81° 38% - - 53° 90.4° 59.1° - - -
5/23 4:40pm 293 3 G 8 81° 38% - - 53° 90.4° 59.1° - - -
5/23 4:30pm 339 3 G 8 81° 38% - - 53° 90.4° 59.1° - - -
5/23 4:20pm 312 4 G 9 81° 38% - - 53° 90.4° 59.1° - - -
5/23 4:10pm 337 3 G 8 81° 39% - - 54° 90.4° 59.1° - - -
5/23 4:00pm 281 5 G 10 81° 39% - - 53° 90.4° 59.1° - - -
5/23 3:50pm 287 4 G 8 81° 37% - - 52° 90.4° 59.1° - - -
5/23 3:40pm 315 4 G 10 80° 38% - - 52° 90.4° 59.1° - - -
5/23 3:30pm 283 6 G 10 80° 40% - - 54° 90.4° 59.1° - - -
5/23 3:20pm 318 4 G 8 80° 47% - - 57° 90.4° 59.1° - - -
5/23 3:10pm 297 4 G 9 79° 49% - - 58° 90.4° 59.1° - - -
5/23 3:00pm 301 5 G 9 79° 49% - - 58° 90.4° 59.1° - - -
5/23 2:50pm 289 5 G 9 80° 49% - - 58° 90.4° 59.1° - - -
5/23 2:40pm 293 5 G 10 80° 48% - - 59° 90.4° 59.1° - - -
5/23 2:30pm 300 5 G 9 80° 48% - - 58° 90.4° 59.1° - - -
5/23 2:20pm 292 5 G 9 80° 48% - - 59° 90.4° 59.1° - - -
5/23 2:10pm 312 5 G 10 80° 47% - - 58° 90.4° 59.1° - - -
5/23 2:00pm 290 5 G 9 81° 46% - - 58° 90.4° 59.1° - - -
5/23 1:50pm 292 4 G 10 82° 45% - - 58° 90.4° 59.1° - - -
5/23 1:40pm 309 5 G 10 81° 46% - - 58° 90.4° 59.1° - - -
5/23 1:30pm 290 5 G 11 82° 44% - - 58° 90.4° 59.1° - - -
5/23 1:20pm 314 3 G 6 82° 42% - - 57° 90.4° 59.1° - - -
5/23 1:10pm 268 5 G 9 81° 43% - - 57° 90.4° 59.1° - - -
5/23 1:00pm 308 4 G 8 82° 42% - - 56° 90.4° 59.1° - - -
5/23 12:50pm 294 6 G 11 83° 39% - - 56° 90.4° 59.1° - - -
5/23 12:40pm 311 4 G 8 84° 37% - - 55° 90.4° 59.1° - - -
5/23 12:30pm 298 5 G 10 84° 36% - - 54° 90.4° 59.1° - - -
5/23 12:20pm 285 6 G 13 85° 34% - - 54° 90.4° 59.1° - - -
5/23 12:10pm 286 5 G 10 86° 32% - - 53° 90.4° 59.1° - - -
5/23 12:00pm 283 4 G 8 86° 31% - - 52° 90.4° 59.1° - - -
5/23 11:50am 324 3 G 7 87° 30% - - 51° 90.4° 59.1° - - -
5/23 11:40am 319 4 G 8 87° 28% - - 50° 90.4° 59.1° - - -
5/23 11:30am 324 4 G 10 88° 26% - - 49° 90.4° 59.1° - - -
5/23 11:20am 299 5 G 9 88° 26% - - 49° 90.4° 59.1° - - -
5/23 11:10am 294 4 G 7 88° 27% - - 50° 90.4° 59.1° - - -
5/23 11:00am 279 5 G 9 89° 25% - - 49° 90.4° 59.1° - - -
5/23 10:50am 264 5 G 7 88° 24% - - 47° 89.2° 59.1° - - -
5/23 10:40am 255 3 G 7 88° 24% - - 47° 89.2° 59.1° - - -
5/23 10:30am 288 2 G 5 88° 24% - - 46° 88.7° 59.1° - - -
5/23 10:20am 288 2 G 5 87° 24% - - 45° 87.8° 59.1° - - -
5/23 10:10am 226 3 G 4 86° 23% - - 44° 87.1° 59.1° - - -
5/23 10:00am 183 2 G 3 86° 22% - - 42° 86.8° 59.1° - - -
5/23 9:50am 190 1 G 4 85° 22% - - 41° 85.8° 59.1° - - -
5/23 9:40am 231 3 G 5 84° 22% - - 41° 84.8° 59.1° - - -
5/23 9:30am 283 2 G 5 84° 22% - - 41° 84.8° 59.1° - - -
5/23 9:20am 96 1 G 4 83° 23% - - 41° 84.5° 59.1° - - -
5/23 9:10am 266 2 G 5 82° 23% - - 40° 83.5° 59.1° - - -
5/23 9:00am 211 1 G 3 83° 20% - - 38° 83.5° 59.1° - - -
5/23 8:50am 96 0 G 2 82° 22% - - 39° 83° 59.1° - - -
5/23 8:40am 6 0 G 2 82° 23% - - 41° 82.7° 59.1° - - -
5/23 8:30am 153 0 G 1 80° 26% - - 42° 81.4° 59.1° - - -
5/23 8:20am 310 0 G 2 78° 29% - - 43° 79.1° 59.1° - - -
5/23 8:10am 357 1 G 2 76° 36% - - 47° 77.1° 59.1° - - -
5/23 8:00am 73 2 G 3 72° 43% - - 48° 74.6° 59.1° - - -
5/23 7:50am 70 2 G 3 70° 50% - - 50° 71.1° 59.1° - - -
5/23 7:40am 83 2 G 2 70° 46% - - 49° 71.1° 59.1° - - -
5/23 7:30am 87 2 G 2 68° 50% - - 49° 69.9° 59.1° - - -
5/23 7:20am 72 3 G 3 66° 48% - - 46° 67.2° 59.1° - - -
5/23 7:10am 85 2 G 3 64° 52% - - 46° 67.2° 59.1° - - -
5/23 7:00am 89 3 G 4 63° 50% - - 45° 67.2° 59.1° - - -
5/23 6:50am 72 3 G 4 63° 47% - - 43° 67.2° 59.1° - - -
5/23 6:40am 72 3 G 4 62° 47% - - 42° 67.2° 59.1° - - -
5/23 6:30am 75 4 G 4 62° 47% - - 41° 67.2° 59.1° - - -
5/23 6:20am 72 4 G 5 61° 45% - - 40° 67.2° 59.1° - - -
5/23 6:10am 78 4 G 5 61° 45% - - 39° 67.2° 59.1° - - -
5/23 6:00am 76 3 G 4 61° 43% - - 39° 67.2° 59.1° - - -
5/23 5:50am 74 3 G 4 61° 43% - - 38° 67.2° 59.1° - - -